createdAt,value
2023-03-19T00:04:41.443Z,80.00
2023-03-19T00:07:12.490Z,79.70
2023-03-19T00:09:43.632Z,79.50
2023-03-19T00:12:14.824Z,79.40
2023-03-19T00:17:53.295Z,78.70
2023-03-19T00:28:52.869Z,75.30
2023-03-19T00:31:24.008Z,74.90
2023-03-19T00:33:55.022Z,74.80
2023-03-19T00:36:27.008Z,74.50
2023-03-19T00:38:58.735Z,74.10
2023-03-19T00:41:30.128Z,74.40
2023-03-19T00:44:01.440Z,74.40
2023-03-19T00:52:17.949Z,74.70
2023-03-19T00:54:48.931Z,74.20
2023-03-19T00:57:19.927Z,73.50
2023-03-19T00:59:50.821Z,73.90
2023-03-19T01:02:21.722Z,74.00
2023-03-19T01:04:52.893Z,74.10
2023-03-19T01:07:27.782Z,73.80
2023-03-19T01:09:58.706Z,73.90
2023-03-19T01:12:29.721Z,73.90
2023-03-19T01:26:52.837Z,73.40
2023-03-19T01:49:42.230Z,72.90
2023-03-19T02:04:04.436Z,71.70
2023-03-19T02:15:21.513Z,71.00
2023-03-19T02:24:08.399Z,70.20
2023-03-19T02:26:48.169Z,70.10
2023-03-19T02:29:21.846Z,71.10
2023-03-19T02:31:59.713Z,70.30
2023-03-19T02:37:42.712Z,70.10
2023-03-19T02:40:36.762Z,69.90
2023-03-19T02:55:01.458Z,69.90
2023-03-19T03:22:49.370Z,66.00
2023-03-19T03:25:30.393Z,64.90
2023-03-19T03:34:01.550Z,64.60
2023-03-19T03:36:32.110Z,63.70
2023-03-19T03:39:03.055Z,63.40
2023-03-19T03:41:34.246Z,63.00
2023-03-19T03:44:05.197Z,62.40
2023-03-19T03:46:36.778Z,61.70
2023-03-19T03:49:17.257Z,61.20
2023-03-19T03:51:48.170Z,60.40
2023-03-19T03:54:19.097Z,59.80
2023-03-19T03:56:51.760Z,59.70
2023-03-19T03:59:23.041Z,59.70
2023-03-19T04:01:54.053Z,59.00
2023-03-19T04:04:25.078Z,59.00
2023-03-19T04:06:55.973Z,59.10
2023-03-19T04:09:27.587Z,59.10
2023-03-19T04:11:58.470Z,58.50
2023-03-19T04:14:29.575Z,58.90
2023-03-19T04:17:00.497Z,58.60
2023-03-19T04:19:31.389Z,58.70
2023-03-19T04:22:03.907Z,58.80
2023-03-19T04:24:34.838Z,58.70
2023-03-19T04:27:05.784Z,58.50
2023-03-19T04:29:36.922Z,59.30
2023-03-19T04:32:08.296Z,58.20
2023-03-19T04:34:39.219Z,57.70
2023-03-19T04:37:11.557Z,57.80
2023-03-19T04:39:42.534Z,57.70
2023-03-19T04:42:13.621Z,57.80
2023-03-19T04:44:44.555Z,57.40
2023-03-19T04:47:16.057Z,57.50
2023-03-19T04:49:46.997Z,57.10
2023-03-19T04:52:17.930Z,57.40
2023-03-19T04:54:49.110Z,57.20
2023-03-19T04:57:20.018Z,57.50
2023-03-19T04:59:50.956Z,56.80
2023-03-19T05:02:22.032Z,56.00
2023-03-19T05:04:54.678Z,55.90
2023-03-19T05:07:25.381Z,56.10
2023-03-19T05:10:01.774Z,55.50
2023-03-19T05:12:31.663Z,55.50
2023-03-19T05:15:02.791Z,58.00
2023-03-19T05:17:36.573Z,55.90
2023-03-19T05:20:09.799Z,56.20
2023-03-19T05:22:40.872Z,56.00
2023-03-19T05:25:12.162Z,55.90
2023-03-19T05:27:43.270Z,55.60
2023-03-19T05:30:23.709Z,55.60
2023-03-19T05:32:54.889Z,56.50
2023-03-19T05:35:25.846Z,54.60
2023-03-19T05:37:57.259Z,54.70
2023-03-19T05:40:32.589Z,55.00
2023-03-19T05:43:03.753Z,56.30
2023-03-19T05:45:34.707Z,56.50
2023-03-19T05:48:09.176Z,56.50
2023-03-19T05:50:39.698Z,56.70
2023-03-19T05:53:10.639Z,56.70
2023-03-19T05:55:41.855Z,56.70
2023-03-19T05:58:12.809Z,55.50
2023-03-19T06:00:43.903Z,55.80
2023-03-19T06:03:14.867Z,54.90
2023-03-19T06:05:46.442Z,54.30
2023-03-19T06:08:20.766Z,54.10
2023-03-19T06:10:51.889Z,54.20
2023-03-19T06:13:22.842Z,52.70
2023-03-19T06:15:53.781Z,52.40
2023-03-19T06:18:24.801Z,51.90
2023-03-19T06:20:55.890Z,51.80
2023-03-19T06:23:28.174Z,51.80
2023-03-19T06:25:59.094Z,51.40
2023-03-19T06:28:30.016Z,51.70
2023-03-19T06:31:01.700Z,52.30
2023-03-19T06:33:36.497Z,51.90
2023-03-19T06:36:09.598Z,51.90
2023-03-19T06:38:40.881Z,50.70
2023-03-19T06:41:12.093Z,50.90
2023-03-19T06:43:44.109Z,51.10
2023-03-19T06:46:15.151Z,50.70
2023-03-19T06:48:46.095Z,51.30
2023-03-19T06:51:17.031Z,50.30
2023-03-19T06:53:48.678Z,50.30
2023-03-19T06:56:19.661Z,51.00
2023-03-19T06:58:52.508Z,50.90
2023-03-19T07:01:24.235Z,50.90
2023-03-19T07:03:56.230Z,51.40
2023-03-19T07:06:28.456Z,51.40
2023-03-19T07:08:59.479Z,50.70
2023-03-19T07:11:36.562Z,50.40
2023-03-19T07:14:09.539Z,50.90
2023-03-19T07:16:40.471Z,50.80
2023-03-19T07:19:11.397Z,51.40
2023-03-19T07:21:42.794Z,52.00
2023-03-19T07:24:13.697Z,52.30
2023-03-19T07:26:45.101Z,52.30
2023-03-19T07:29:16.131Z,52.60
2023-03-19T07:31:47.162Z,52.90
2023-03-19T07:34:19.290Z,53.30
2023-03-19T07:36:50.412Z,53.00
2023-03-19T07:39:21.716Z,53.30
2023-03-19T07:41:53.234Z,53.00
2023-03-19T07:44:24.590Z,52.90
2023-03-19T07:46:55.828Z,53.30
2023-03-19T07:49:26.778Z,53.50
2023-03-19T07:51:57.805Z,53.60
2023-03-19T07:54:28.839Z,53.90
2023-03-19T07:56:59.739Z,54.20
2023-03-19T07:59:30.733Z,54.10
2023-03-19T08:02:01.676Z,54.30
2023-03-19T08:04:32.864Z,54.90
2023-03-19T08:07:06.362Z,55.30
2023-03-19T08:09:38.492Z,55.70
2023-03-19T08:12:10.560Z,55.90
2023-03-19T08:14:41.565Z,56.30
2023-03-19T08:17:12.627Z,57.00
2023-03-19T08:19:43.675Z,57.80
2023-03-19T08:22:14.658Z,57.90
2023-03-19T08:24:45.569Z,58.20
2023-03-19T08:27:16.468Z,58.00
2023-03-19T08:29:47.417Z,57.90
2023-03-19T08:32:22.141Z,58.10
2023-03-19T08:34:55.855Z,58.50
2023-03-19T08:37:28.237Z,58.00
2023-03-19T08:39:59.217Z,57.80
2023-03-19T08:42:30.267Z,57.50
2023-03-19T08:45:01.166Z,57.50
2023-03-19T08:47:32.285Z,57.20
2023-03-19T08:50:03.195Z,58.50
2023-03-19T08:52:34.404Z,57.80
2023-03-19T08:55:05.321Z,57.50
2023-03-19T08:57:36.599Z,57.60
2023-03-19T09:00:08.981Z,57.80
2023-03-19T09:02:39.920Z,57.90
2023-03-19T09:05:12.430Z,58.70
2023-03-19T09:07:45.726Z,58.10
2023-03-19T09:10:22.453Z,58.10
2023-03-19T09:12:51.947Z,58.10
2023-03-19T09:15:23.273Z,58.20
2023-03-19T09:17:54.418Z,58.00
2023-03-19T09:20:25.513Z,57.80
2023-03-19T09:22:56.539Z,57.60
2023-03-19T09:25:27.428Z,57.50
2023-03-19T09:27:58.329Z,57.20
2023-03-19T09:30:30.450Z,57.30
2023-03-19T09:33:01.660Z,57.70
2023-03-19T09:35:34.612Z,58.10
2023-03-19T09:38:06.210Z,58.20
2023-03-19T09:40:48.914Z,59.10
2023-03-19T09:43:32.107Z,59.10
2023-03-19T09:46:04.789Z,59.10
2023-03-19T09:48:42.170Z,59.20
2023-03-19T09:51:15.449Z,59.50
2023-03-19T09:54:01.450Z,59.60
2023-03-19T09:56:32.161Z,59.80
2023-03-19T09:59:04.319Z,59.50
2023-03-19T10:01:38.308Z,59.80
2023-03-19T10:04:38.957Z,59.90
2023-03-19T10:07:44.209Z,60.10
2023-03-19T10:10:24.269Z,59.80
2023-03-19T10:13:17.736Z,60.00
2023-03-19T10:15:50.194Z,60.00
2023-03-19T10:18:26.868Z,60.10
2023-03-19T10:21:03.717Z,60.30
2023-03-19T10:23:36.986Z,60.30
2023-03-19T10:26:10.241Z,60.50
2023-03-19T10:28:43.327Z,60.50
2023-03-19T10:31:28.832Z,60.70
2023-03-19T10:34:33.643Z,60.90
2023-03-19T10:37:06.878Z,61.10
2023-03-19T10:39:39.925Z,61.20
2023-03-19T10:42:29.334Z,61.60
2023-03-19T10:45:06.756Z,61.60
2023-03-19T10:47:42.351Z,61.80
2023-03-19T10:50:21.534Z,61.90
2023-03-19T10:52:57.441Z,62.10
2023-03-19T10:55:30.460Z,62.20
2023-03-19T10:58:06.265Z,62.10
2023-03-19T11:00:37.929Z,62.30
2023-03-19T11:03:11.141Z,62.40
2023-03-19T11:05:42.054Z,62.60
2023-03-19T11:08:32.852Z,62.70
2023-03-19T11:10:51.914Z,62.80
2023-03-19T11:13:28.184Z,63.00
2023-03-19T11:16:01.378Z,63.10
2023-03-19T11:18:35.140Z,63.10
2023-03-19T11:21:11.391Z,63.40
2023-03-19T11:23:45.691Z,63.20
2023-03-19T11:26:19.162Z,63.30
2023-03-19T11:28:57.330Z,63.30
2023-03-19T11:31:47.951Z,63.90
2023-03-19T11:34:46.464Z,63.40
2023-03-19T11:37:35.209Z,63.90
2023-03-19T11:40:40.665Z,63.80
2023-03-19T11:43:29.824Z,63.90
2023-03-19T11:46:09.407Z,63.40
2023-03-19T11:49:08.075Z,63.40
2023-03-19T11:51:58.700Z,63.30
2023-03-19T11:55:05.580Z,63.90
2023-03-19T11:57:51.536Z,63.90
2023-03-19T12:00:46.507Z,64.10
2023-03-19T12:03:27.130Z,64.30
2023-03-19T12:06:00.402Z,64.40
2023-03-19T12:08:56.172Z,64.60
2023-03-19T12:11:32.193Z,64.70
2023-03-19T12:14:17.298Z,64.90
2023-03-19T12:17:25.773Z,65.30
2023-03-19T12:20:05.213Z,65.70
2023-03-19T12:23:06.094Z,65.60
2023-03-19T12:25:48.028Z,65.10
2023-03-19T12:28:32.478Z,64.80
2023-03-19T12:31:09.699Z,64.00
2023-03-19T12:33:52.800Z,62.90
2023-03-19T12:36:20.084Z,62.00
2023-03-19T12:38:53.782Z,61.60
2023-03-19T12:41:32.201Z,61.80
2023-03-19T12:44:07.063Z,61.90
2023-03-19T12:46:40.746Z,62.40
2023-03-19T12:49:34.621Z,62.80
2023-03-19T12:55:55.167Z,63.30
2023-03-19T12:57:53.963Z,63.70
2023-03-19T13:00:41.458Z,64.20
2023-03-19T13:03:43.344Z,64.30
2023-03-19T13:06:16.587Z,64.70
2023-03-19T13:08:59.413Z,64.70
2023-03-19T13:11:55.809Z,65.00
2023-03-19T13:14:56.485Z,65.20
2023-03-19T13:20:55.825Z,65.80
2023-03-19T13:23:31.667Z,65.90
2023-03-19T13:26:05.627Z,66.20
2023-03-19T13:28:39.305Z,66.10
2023-03-19T13:31:17.012Z,66.30
2023-03-19T13:34:08.114Z,66.60
2023-03-19T13:36:43.245Z,66.80
2023-03-19T13:39:19.846Z,67.00
2023-03-19T13:42:01.882Z,67.30
2023-03-19T13:44:35.385Z,67.40
2023-03-19T13:47:14.649Z,67.60
2023-03-19T13:49:50.022Z,67.80
2023-03-19T13:52:24.394Z,67.90
2023-03-19T13:55:00.145Z,68.30
2023-03-19T13:57:44.640Z,68.40
2023-03-19T14:00:46.060Z,68.70
2023-03-19T14:03:25.735Z,68.70
2023-03-19T14:06:00.105Z,68.70
2023-03-19T14:08:33.776Z,69.00
2023-03-19T14:11:06.806Z,69.00
2023-03-19T14:13:45.855Z,69.10
2023-03-19T14:16:28.301Z,69.10
2023-03-19T14:19:05.983Z,68.90
2023-03-19T14:21:47.089Z,69.10
2023-03-19T14:24:56.813Z,68.90
2023-03-19T14:27:25.461Z,68.80
2023-03-19T14:30:00.173Z,68.70
2023-03-19T14:32:32.843Z,68.70
2023-03-19T14:35:06.264Z,68.30
2023-03-19T14:37:56.350Z,68.20
2023-03-19T14:40:54.498Z,68.30
2023-03-19T14:43:58.962Z,68.30
2023-03-19T14:46:35.293Z,68.30
2023-03-19T14:49:39.478Z,68.80
2023-03-19T14:52:28.718Z,69.00
2023-03-19T14:55:12.703Z,69.10
2023-03-19T14:57:44.877Z,69.30
2023-03-19T15:00:21.180Z,69.30
2023-03-19T15:03:01.780Z,69.50
2023-03-19T15:05:35.922Z,69.60
2023-03-19T15:08:09.634Z,69.70
2023-03-19T15:11:12.392Z,69.70
2023-03-19T15:14:02.028Z,69.70
2023-03-19T15:17:02.880Z,69.90
2023-03-19T15:19:34.923Z,70.00
2023-03-19T15:22:14.465Z,70.30
2023-03-19T15:24:45.908Z,70.40
2023-03-19T15:27:40.446Z,70.40
2023-03-19T15:30:27.414Z,70.40
2023-03-19T15:33:11.958Z,70.30
2023-03-19T15:35:37.517Z,70.30
2023-03-19T15:38:14.353Z,70.70
2023-03-19T15:40:45.667Z,70.80
2023-03-19T15:43:17.301Z,70.20
2023-03-19T15:45:54.254Z,70.00
2023-03-19T15:48:30.658Z,70.30
2023-03-19T15:51:04.228Z,70.40
2023-03-19T15:53:37.545Z,70.60
2023-03-19T15:56:09.767Z,70.80
2023-03-19T15:58:43.285Z,71.10
2023-03-19T16:01:16.199Z,71.10
2023-03-19T16:03:55.411Z,70.90
2023-03-19T16:06:36.053Z,70.90
2023-03-19T16:09:18.598Z,72.00
2023-03-19T16:11:49.903Z,71.20
2023-03-19T16:14:41.775Z,71.20
2023-03-19T16:17:18.372Z,71.30
2023-03-19T16:19:58.239Z,71.60
2023-03-19T16:22:34.033Z,71.60
2023-03-19T16:25:06.287Z,71.90
2023-03-19T16:27:39.655Z,72.10
2023-03-19T16:30:34.366Z,72.40
2023-03-19T16:33:06.757Z,72.60
2023-03-19T16:35:38.794Z,72.40
2023-03-19T16:38:26.785Z,72.40
2023-03-19T16:41:21.413Z,72.40
2023-03-19T16:43:55.182Z,72.90
2023-03-19T16:46:27.855Z,72.60
2023-03-19T16:48:59.714Z,72.30
2023-03-19T16:51:30.911Z,72.00
2023-03-19T16:54:04.610Z,71.80
2023-03-19T16:56:38.474Z,72.00
2023-03-19T16:59:08.903Z,71.80
2023-03-19T17:01:40.299Z,71.80
2023-03-19T17:04:13.884Z,71.70
2023-03-19T17:06:44.898Z,71.90
2023-03-19T17:09:26.062Z,73.00
2023-03-19T17:11:58.037Z,71.90
2023-03-19T17:14:29.318Z,72.00
2023-03-19T17:17:02.615Z,72.20
2023-03-19T17:19:39.751Z,72.30
2023-03-19T17:22:14.642Z,72.40
2023-03-19T17:24:46.018Z,72.40
2023-03-19T17:27:17.850Z,72.70
2023-03-19T17:29:49.116Z,72.90
2023-03-19T17:32:22.468Z,73.20
2023-03-19T17:34:53.514Z,73.50
2023-03-19T17:37:24.531Z,73.90
2023-03-19T17:39:55.949Z,74.10
2023-03-19T17:42:28.005Z,74.50
2023-03-19T17:45:01.791Z,74.70
2023-03-19T17:47:32.925Z,75.00
2023-03-19T17:50:04.288Z,74.90
2023-03-19T17:52:39.784Z,74.90
2023-03-19T17:55:27.822Z,74.90
2023-03-19T17:57:59.347Z,74.90
2023-03-19T18:00:30.482Z,74.60
2023-03-19T18:03:01.871Z,74.50
2023-03-19T18:05:32.966Z,74.30
2023-03-19T18:08:03.906Z,74.20
2023-03-19T18:10:36.470Z,74.10
2023-03-19T18:13:08.039Z,74.10
2023-03-19T18:15:40.417Z,73.90
2023-03-19T18:18:13.990Z,73.80
2023-03-19T18:20:46.543Z,73.60
2023-03-19T18:23:18.511Z,73.30
2023-03-19T18:25:49.453Z,73.40
2023-03-19T18:28:20.592Z,73.30
2023-03-19T18:30:51.630Z,72.80
2023-03-19T18:33:24.982Z,72.80
2023-03-19T18:35:56.519Z,72.60
2023-03-19T18:38:30.924Z,72.60
2023-03-19T18:41:02.365Z,72.70
2023-03-19T18:43:33.593Z,72.60
2023-03-19T18:46:04.539Z,72.50
2023-03-19T18:48:35.769Z,72.50
2023-03-19T18:51:07.852Z,72.40
2023-03-19T18:53:38.748Z,71.80
2023-03-19T18:56:24.482Z,72.80
2023-03-19T18:58:56.428Z,72.80
2023-03-19T19:01:28.386Z,73.00
2023-03-19T19:03:59.341Z,72.70
2023-03-19T19:06:46.367Z,72.90
2023-03-19T19:09:05.934Z,73.10
2023-03-19T19:11:37.808Z,73.10
2023-03-19T19:14:11.159Z,73.40
2023-03-19T19:16:42.746Z,73.80
2023-03-19T19:19:25.572Z,73.90
2023-03-19T19:21:57.196Z,74.10
2023-03-19T19:24:28.554Z,74.20
2023-03-19T19:27:01.684Z,73.80
2023-03-19T19:29:33.518Z,73.80
2023-03-19T19:32:05.632Z,73.90
2023-03-19T19:34:39.730Z,73.80
2023-03-19T19:37:13.502Z,74.10
2023-03-19T19:39:44.684Z,74.30
2023-03-19T19:42:18.184Z,74.30
2023-03-19T19:44:51.746Z,74.50
2023-03-19T19:47:22.757Z,74.40
2023-03-19T19:49:54.123Z,74.20
2023-03-19T19:52:29.334Z,74.20
2023-03-19T19:55:00.877Z,74.50
2023-03-19T19:57:32.478Z,74.10
2023-03-19T20:00:06.079Z,74.30
2023-03-19T20:02:37.042Z,74.80
2023-03-19T20:05:08.402Z,75.30
2023-03-19T20:07:39.560Z,74.90
2023-03-19T20:10:11.325Z,74.60
2023-03-19T20:12:44.771Z,74.20
2023-03-19T20:15:21.160Z,74.20
2023-03-19T20:22:57.362Z,73.10
2023-03-19T20:25:31.124Z,74.20
2023-03-19T20:28:03.874Z,74.30
2023-03-19T20:30:38.252Z,74.10
2023-03-19T20:33:10.574Z,73.60
2023-03-19T20:35:41.977Z,73.80
2023-03-19T20:38:15.359Z,74.20
2023-03-19T20:40:51.698Z,74.20
2023-03-19T20:43:34.064Z,74.20
2023-03-19T20:46:07.958Z,74.20
2023-03-19T20:48:39.521Z,74.50
2023-03-19T20:51:11.935Z,74.80
2023-03-19T20:53:43.520Z,75.00
2023-03-19T20:56:17.319Z,75.00
2023-03-19T20:58:48.976Z,75.10
2023-03-19T21:01:20.971Z,75.20
2023-03-19T21:03:51.913Z,75.20
2023-03-19T21:06:28.424Z,74.90
2023-03-19T21:09:01.526Z,75.10
2023-03-19T21:11:43.356Z,75.20
2023-03-19T21:14:18.071Z,75.30
2023-03-19T21:16:49.034Z,75.30
2023-03-19T21:19:20.544Z,75.40
2023-03-19T21:21:51.774Z,75.60
2023-03-19T21:24:24.284Z,76.20
2023-03-19T21:26:56.870Z,76.60
2023-03-19T21:29:30.192Z,76.50
2023-03-19T21:32:01.809Z,77.60
2023-03-19T21:34:33.090Z,76.90
2023-03-19T21:37:03.981Z,76.90
2023-03-19T21:39:34.898Z,76.90
2023-03-19T21:42:09.626Z,76.90
2023-03-19T21:44:41.981Z,76.90
2023-03-19T21:47:24.141Z,76.70
2023-03-19T21:49:55.998Z,76.40
2023-03-19T21:52:26.942Z,76.20
2023-03-19T21:54:58.522Z,76.00
2023-03-19T21:57:30.157Z,75.60
2023-03-19T22:00:01.136Z,75.40
2023-03-19T22:02:34.713Z,75.20
2023-03-19T22:05:07.348Z,75.00
2023-03-19T22:07:39.166Z,75.10
2023-03-19T22:10:10.678Z,75.10
2023-03-19T22:12:42.636Z,75.10
2023-03-19T22:15:22.974Z,75.20
2023-03-19T22:17:53.889Z,75.70
2023-03-19T22:20:27.479Z,76.80
2023-03-19T22:22:59.573Z,76.30
2023-03-19T22:25:33.330Z,76.40
2023-03-19T22:28:06.848Z,76.50
2023-03-19T22:30:40.452Z,76.70
2023-03-19T22:33:25.057Z,76.70
2023-03-19T22:35:56.381Z,76.50
2023-03-19T22:38:27.584Z,76.50
2023-03-19T22:40:59.298Z,76.50
2023-03-19T22:43:36.213Z,76.10
2023-03-19T22:46:15.428Z,76.30
2023-03-19T22:48:50.162Z,76.70
2023-03-19T22:51:24.871Z,77.10
2023-03-19T22:53:56.742Z,77.80
2023-03-19T22:56:28.200Z,77.50
2023-03-19T22:58:59.349Z,78.00
2023-03-19T23:01:32.901Z,78.30
2023-03-19T23:04:06.495Z,78.40
2023-03-19T23:06:37.728Z,78.60
2023-03-19T23:09:09.298Z,78.80
2023-03-19T23:11:40.655Z,78.60
2023-03-19T23:14:26.100Z,78.30
2023-03-19T23:16:47.013Z,78.20
2023-03-19T23:19:20.705Z,78.10
2023-03-19T23:21:52.164Z,78.10
2023-03-19T23:24:23.622Z,78.00
2023-03-19T23:26:57.615Z,77.90
2023-03-19T23:29:31.453Z,77.70
2023-03-19T23:32:02.914Z,78.00
2023-03-19T23:34:42.335Z,78.20
2023-03-19T23:37:07.119Z,78.40
2023-03-19T23:39:39.749Z,78.30
2023-03-19T23:42:11.975Z,78.50
2023-03-19T23:44:44.820Z,78.90
2023-03-19T23:47:16.650Z,79.50
2023-03-19T23:49:47.616Z,79.90
2023-03-19T23:52:18.647Z,80.30
2023-03-19T23:54:49.870Z,80.80
2023-03-19T23:57:22.297Z,81.10
2023-03-19T23:59:54.518Z,81.10
